地図

経路データ

SID SEASON NUMBER BASIN SUBBASIN NAME ISO_TIME NATURE LAT LON WMO_WIND WMO_PRES WMO_AGENCY TRACK_TYPE DIST2LAND LANDFALL IFLAG USA_AGENCY USA_ATCF_ID USA_LAT USA_LON USA_RECORD USA_STATUS USA_WIND USA_PRES USA_SSHS USA_R34_NE USA_R34_SE USA_R34_SW USA_R34_NW USA_R50_NE USA_R50_SE USA_R50_SW USA_R50_NW USA_R64_NE USA_R64_SE USA_R64_SW USA_R64_NW USA_POCI USA_ROCI USA_RMW USA_EYE TOKYO_LAT TOKYO_LON TOKYO_GRADE TOKYO_WIND TOKYO_PRES TOKYO_R50_DIR TOKYO_R50_LONG TOKYO_R50_SHORT TOKYO_R30_DIR TOKYO_R30_LONG TOKYO_R30_SHORT TOKYO_LAND CMA_LAT CMA_LON CMA_CAT CMA_WIND CMA_PRES HKO_LAT HKO_LON HKO_CAT HKO_WIND HKO_PRES NEWDELHI_LAT NEWDELHI_LON NEWDELHI_GRADE NEWDELHI_WIND NEWDELHI_PRES NEWDELHI_CI NEWDELHI_DP NEWDELHI_POCI REUNION_LAT REUNION_LON REUNION_TYPE REUNION_WIND REUNION_PRES REUNION_TNUM REUNION_CI REUNION_RMW REUNION_R34_NE REUNION_R34_SE REUNION_R34_SW REUNION_R34_NW REUNION_R50_NE REUNION_R50_SE REUNION_R50_SW REUNION_R50_NW REUNION_R64_NE REUNION_R64_SE REUNION_R64_SW REUNION_R64_NW BOM_LAT BOM_LON BOM_TYPE BOM_WIND BOM_PRES BOM_TNUM BOM_CI BOM_RMW BOM_R34_NE BOM_R34_SE BOM_R34_SW BOM_R34_NW BOM_R50_NE BOM_R50_SE BOM_R50_SW BOM_R50_NW BOM_R64_NE BOM_R64_SE BOM_R64_SW BOM_R64_NW BOM_ROCI BOM_POCI BOM_EYE BOM_POS_METHOD BOM_PRES_METHOD NADI_LAT NADI_LON NADI_CAT NADI_WIND NADI_PRES WELLINGTON_LAT WELLINGTON_LON WELLINGTON_WIND WELLINGTON_PRES DS824_LAT DS824_LON DS824_STAGE DS824_WIND DS824_PRES TD9636_LAT TD9636_LON TD9636_STAGE TD9636_WIND TD9636_PRES TD9635_LAT TD9635_LON TD9635_WIND TD9635_PRES TD9635_ROCI NEUMANN_LAT NEUMANN_LON NEUMANN_CLASS NEUMANN_WIND NEUMANN_PRES MLC_LAT MLC_LON MLC_CLASS MLC_WIND MLC_PRES USA_GUST BOM_GUST BOM_GUST_PER REUNION_GUST REUNION_GUST_PER USA_SEAHGT USA_SEARAD_NE USA_SEARAD_SE USA_SEARAD_SW USA_SEARAD_NW STORM_SPEED STORM_DIR
1964056S05100 1964 15 SI WA EVA 1964-02-24 16:00:00 NR -5.00000 100.000 main 268 268 __________O___ -1 -5.00000 100.000 7 7 270
1964056S05100 1964 15 SI WA EVA 1964-02-24 18:00:00 TS -5.00167 99.7747 main 283 283 O_________P___ jtwc_sh SH191964 -5.00000 99.8000 25 -1 -5.00418 99.7366 7 8 271
1964056S05100 1964 15 SI WA EVA 1964-02-24 21:00:00 TS -4.99047 99.3526 main 316 325 P_________P___ SH191964 -4.97505 99.3650 22 -1 -5.02131 99.3279 7 9 269
1964056S05100 1964 15 SI WA EVA 1964-02-25 00:00:00 TS -5.02049 98.8950 main 359 359 O_________P___ jtwc_sh SH191964 -5.00000 98.9000 20 -1 -5.06658 98.8838 7 8 265
1964056S05100 1964 15 SI WA EVA 1964-02-25 01:00:00 TS -5.04086 98.8057 1005 bom main 360 360 P_____O___P___ SH191964 -5.02760 98.7333 20 -1 -5.00000 100.000 1005 -5.09086 98.7243 7 10 258
1964056S05100 1964 15 SI WA EVA 1964-02-25 03:00:00 TS -5.12333 98.4123 main 377 377 P_____P___P___ SH191964 -5.11245 98.3800 20 -1 -5.12144 98.6643 1005 -5.15694 98.3832 7 12 257
1964056S05100 1964 15 SI WA EVA 1964-02-25 04:00:00 TS -5.17970 98.1958 1005 bom main 393 393 P_____O___O___ SH191964 -5.16785 98.1933 20 -1 -5.20000 98.2000 1005 -5.20000 98.2000 7 13 252
1964056S05100 1964 15 SI WA EVA 1964-02-25 06:00:00 TS -5.32003 97.8177 main 417 417 O_____P__OP_O_ jtwc_sh SH191964 -5.30000 97.8000 20 -1 -5.40218 97.7901 1005 -5.40000 97.8000 TC 20 1005 -5.30796 97.8071 7 -5.20000 98.2000 TC 25 12 249
1964056S05100 1964 15 SI WA EVA 1964-02-25 07:00:00 TS -5.39289 97.6259 1005 bom main 436 436 P_____O__PP_P_ SH191964 -5.36928 97.5947 21 -1 -5.50000 97.6000 1005 -5.49521 97.5593 TC 20 1005 -5.37232 97.5993 7 -5.25920 97.9845 TC 25 14 252
1964056S05100 1964 15 SI WA EVA 1964-02-25 09:00:00 TS -5.54448 97.1330 main 470 480 P_____P__PP_P_ SH191964 -5.52748 97.1650 25 -1 -5.63710 96.7272 1005 -5.68344 97.0816 TC 20 1005 -5.52004 97.1670 7 -5.38262 97.5525 TC 25 15 252
1964056S05100 1964 15 SI WA EVA 1964-02-25 10:00:00 TS -5.62447 96.8943 1005 bom main 490 490 P_____O__PP_P_ SH191964 -5.61454 96.9442 26 -1 -5.70000 96.3000 1005 -5.77551 96.8468 TC 20 1005 -5.60270 96.9448 7 -5.44947 97.3358 TC 25 14 249
1964056S05100 1964 15 SI WA EVA 1964-02-25 12:00:00 TS -5.79808 96.4557 main 531 536 O_____P__PP_O_ jtwc_sh SH191964 -5.80000 96.5000 30 -1 -5.84955 95.9054 1005 -5.95315 96.3902 TC 20 1005 -5.78386 96.4941 7 -5.60000 96.9000 TC 25 13 246
1964056S05100 1964 15 SI WA EVA 1964-02-25 15:00:00 TS -6.07817 95.8632 main 595 601 P_____P__PP_P_ SH191964 -6.09245 95.8425 32 -1 -6.10606 95.6992 1005 -6.19623 95.7536 TC 20 1005 -6.09009 95.8197 7 -5.87745 96.2425 TC 25 13 244
1964056S05100 1964 15 SI WA EVA 1964-02-25 16:00:00 TS -6.17627 95.6657 1005 bom main 616 616 P_____O__PO_P_ SH191964 -6.19452 95.6254 33 -1 -6.20000 95.6000 1005 -6.26914 95.5585 TC 20 1005 -6.20000 95.6000 7 -5.98119 96.0254 TC 25 13 244
1964056S05100 1964 15 SI WA EVA 1964-02-25 18:00:00 TS -6.36858 95.2565 main 661 667 O_____P__OP_O_ jtwc_sh SH191964 -6.40000 95.2000 35 0 -6.39826 95.1921 1005 -6.40000 95.2000 TC 20 1005 -6.38182 95.2035 7 -6.20000 95.6000 TC 25 13 245
1964056S05100 1964 15 SI WA EVA 1964-02-25 19:00:00 TS -6.45670 95.0604 1005 bom main 683 683 P_____O__PP_P_ SH191964 -6.48421 94.9942 35 0 -6.50000 95.0000 1005 -6.45823 95.0375 TC 20 1005 -6.47774 95.0088 7 -6.30828 95.3942 TC 25 12 244
1964056S05100 1964 15 SI WA EVA 1964-02-25 21:00:00 TS -6.63962 94.6936 main 720 728 P_____P__PP_P_ SH191964 -6.65491 94.5922 35 0 -6.70786 94.7383 1005 -6.58451 94.7256 TC 20 1005 -6.68538 94.6219 7 -6.53490 94.9924 TC 25 12 243
1964056S05100 1964 15 SI WA EVA 1964-02-25 22:00:00 TS -6.73947 94.5099 1005 bom main 743 743 P_____O__PP_P_ SH191964 -6.75251 94.3943 35 0 -6.80000 94.6000 1005 -6.66611 94.5641 TC 20 1005 -6.79942 94.4280 7 -6.65325 94.7945 TC 25 13 240
1964056S05100 1964 15 SI WA EVA 1964-02-26 00:00:00 TS -6.96472 94.1230 main 797 797 O_____P__OP_O_ jtwc_sh SH191964 -7.00000 94.0000 35 0 -6.89923 94.2266 1005 -6.90000 94.2000 TC 20 1005 -7.05377 94.0346 7 -6.90000 94.4000 TC 25 14 238
1964056S05100 1964 15 SI WA EVA 1964-02-26 01:00:00 TS -7.10676 93.9221 1005 bom main 820 820 P_____O__PP_P_ SH191964 -7.15778 93.8104 35 0 -7.00000 94.0000 1005 -7.06578 93.9797 TC 20 1004 -7.19640 93.8333 7 -7.01180 94.2103 TC 25 16 231
1964056S05100 1964 15 SI WA EVA 1964-02-26 03:00:00 TS -7.46704 93.4994 main 883 883 P_____P__PP_P_ SH191964 -7.53231 93.4297 35 0 -7.43163 93.4697 1005 -7.47509 93.4906 TC 20 1004 -7.51835 93.4170 7 -7.24731 93.8296 TC 25 17 228
1964056S05100 1964 15 SI WA EVA 1964-02-26 04:00:00 TS -7.67405 93.2794 1005 bom main 915 915 P_____O__PO_P_ SH191964 -7.74352 93.2313 35 0 -7.70000 93.2000 1005 -7.70748 93.2304 TC 20 1004 -7.70000 93.2000 7 -7.38031 93.6312 TC 25 19 226
1964056S05100 1964 15 SI WA EVA 1964-02-26 06:00:00 TS -8.12150 92.8195 main 985 993 O_____P__OP_O_ jtwc_sh SH191964 -8.20000 92.8000 35 0 -8.23574 92.7357 1004 -8.20000 92.7000 TC 20 1004 -8.11479 92.7010 7 -7.70000 93.2000 TC 25 20 226
1964056S05100 1964 15 SI WA EVA 1964-02-26 07:00:00 TS -8.35251 92.5715 1004 bom main 1025 1025 P_____O__PP_P_ SH191964 -8.43290 92.5536 34 0 -8.50000 92.5000 1004 -8.43210 92.4474 TC 20 1003 -8.34287 92.4415 7 -7.89388 92.9510 TC 25 21 227
1964056S05100 1964 15 SI WA EVA 1964-02-26 09:00:00 TS -8.83385 92.0438 main 1103 1111 P_____P__PP_P_ SH191964 -8.92757 92.0225 32 -1 -8.97020 91.9701 1004 -8.91233 91.9404 TC 21 1003 -8.83156 91.9133 7 -8.34013 92.4150 TC 25 22 227
1964056S05100 1964 15 SI WA EVA 1964-02-26 10:00:00 TS -9.08344 91.7738 1004 bom main 1142 1142 P_____O__PP_P_ SH191964 -9.18376 91.7471 31 -1 -9.20000 91.7000 1004 -9.15907 91.6868 TC 21 1003 -9.08867 91.6490 7 -8.58505 92.1392 TC 25 22 226
1964056S05100 1964 15 SI WA EVA 1964-02-26 12:00:00 TS -9.59502 91.2422 main 1228 1228 O_____P__PP_O_ jtwc_sh SH191964 -9.70000 91.2000 30 -1 -9.68324 91.1832 1003 -9.66230 91.1809 TC 22 1003 -9.61962 91.1311 7 -9.10000 91.6000 TC 25 22 225
1964056S05100 1964 15 SI WA EVA 1964-02-26 15:00:00 TS -10.3635 90.4930 main 1346 1346 P_____P__PP_P_ SH191964 -10.4499 90.4272 30 -1 -10.4395 90.4395 1003 -10.4311 90.4309 TC 23 1002 -10.4319 90.4141 7 -9.89226 90.8847 TC 25 21 223
1964056S05100 1964 15 SI WA EVA 1964-02-26 16:00:00 TS -10.6216 90.2537 1003 bom main 1377 1377 P_____O__PO_P_ SH191964 -10.6999 90.1785 30 -1 -10.7000 90.2000 1003 -10.6883 90.1846 TC 24 1002 -10.7000 90.2000 7 -10.1635 90.6555 TC 25 21 222
1964056S05100 1964 15 SI MM EVA 1964-02-26 18:00:00 TS -11.1342 89.7826 main 1455 1471 O_____P__OP_O_ jtwc_sh SH191964 -11.2000 89.7000 30 -1 -11.2399 89.7315 1002 -11.2000 89.7000 TC 25 1002 -11.1995 89.7466 7 -10.7000 90.2000 TC 25 21 223
1964056S05100 1964 15 SI MM EVA 1964-02-26 19:00:00 TS -11.3865 89.5226 1002 bom main 1502 1502 P_____O__PP_P_ SH191964 -11.4501 89.4276 31 -1 -11.5000 89.5000 1002 -11.4501 89.4041 TC 25 1001 -11.4494 89.5332 7 -10.9558 89.9379 TC 25 21 225
1964056S05100 1964 15 SI MM EVA 1964-02-26 21:00:00 TS -11.8817 89.0245 main 1581 1581 P_____P__PP_P_ SH191964 -11.9502 88.9082 35 0 -11.9641 89.0411 1001 -11.9503 88.8412 TC 27 1001 -11.9491 89.1464 7 -11.4577 89.4178 TC 25 21 223
1964056S05100 1964 15 SI MM EVA 1964-02-26 22:00:00 TS -12.1293 88.8043 1001 bom main 1612 1612 P_____O__PP_P_ SH191964 -12.2002 88.6888 36 0 -12.2000 88.8000 1001 -12.2002 88.6049 TC 28 1000 -12.1990 88.9785 7 -11.7057 89.1801 TC 25 19 217
1964056S05100 1964 15 SI MM EVA 1964-02-27 00:00:00 TS -12.6336 88.4538 main 1675 1690 O_____P__OP_O_ jtwc_sh SH191964 -12.7000 88.4000 40 0 -12.7359 88.1698 1000 -12.7000 88.3000 TC 30 1000 -12.6990 88.7072 7 -12.2000 88.8000 TC 25 17 209
1964056S05100 1964 15 SI MM EVA 1964-02-27 01:00:00 TS -12.8854 88.3692 1000 bom main 1706 1706 P_____O__PP_P_ SH191964 -12.9498 88.3535 40 0 -13.0000 88.0000 1000 -12.9497 88.2615 TC 30 999 -12.9492 88.6093 7 -12.4498 88.6531 TC 25 15 183
1964056S05100 1964 15 SI MM EVA 1964-02-27 03:00:00 TS -13.3803 88.4124 main 1747 1747 P_____P__PP_P_ SH191964 -13.4496 88.4270 40 0 -13.4642 88.2625 999 -13.4496 88.3700 TC 32 999 -13.4496 88.5029 7 -12.9495 88.4702 TC 25 15 170
1964056S05100 1964 15 SI MM EVA 1964-02-27 04:00:00 TS -13.6284 88.5012 999 bom main 1757 1757 P_____O__PO_P_ SH191964 -13.6997 88.5266 40 0 -13.7000 88.5000 999 -13.6997 88.4908 TC 33 998 -13.7000 88.5000 1 25 -13.1996 88.4378 TC 25 16 157
1964056S05100 1964 15 SI MM EVA 1964-02-27 06:00:00 TS -14.1337 88.7362 main 1785 1787 O_____P__OP_O_ jtwc_sh SH191964 -14.2000 88.8000 40 0 -14.2358 88.8334 998 -14.2000 88.8000 TC 35 998 -14.2001 88.6199 1 24 -13.7000 88.5000 TC 25 1001 17 155
1964056S05100 1964 15 SI MM EVA 1964-02-27 07:00:00 TS -14.3858 88.8632 998 bom main 1798 1798 P_____O__PP_P_ SH191964 -14.4501 88.9323 39 0 -14.5000 89.0000 998 -14.4501 88.9220 TC 35 997 -14.4502 88.7312 1 23 -13.9501 88.5921 TC 25 1000 17 150
1964056S05100 1964 15 SI MM EVA 1964-02-27 09:00:00 TS -14.8817 89.1773 main 1822 1822 P_____P__PP_P_ SH191964 -14.9501 89.2549 37 0 -14.9702 89.3335 996 -14.9503 89.2060 TC 36 997 -14.9507 89.0350 1 22 -14.4502 88.9019 TC 27 1000 18 147
1964056S05100 1964 15 SI MM EVA 1964-02-27 10:00:00 TS -15.1288 89.3545 996 bom main 1828 1828 P_____O__PP_P_ SH191964 -15.2001 89.4341 36 0 -15.2000 89.5000 996 -15.2004 89.3645 TC 36 996 -15.2008 89.2190 1 22 -14.7002 89.0956 TC 28 999 18 145
1964056S05100 1964 15 SI MM EVA 1964-02-27 12:00:00 TS -15.6264 89.7242 main 1855 1859 O_____P__PP_O_ jtwc_sh SH191964 -15.7000 89.8000 35 0 -15.6833 89.8335 995 -15.7004 89.7060 TC 37 996 -15.7009 89.6297 1 21 -15.2000 89.5000 TC 30 999 18 145
1964056S05100 1964 15 SI WA EVA 1964-02-27 15:00:00 TS -16.3771 90.2536 main 1897 1897 P_____P__PP_P_ SH191964 -16.4499 90.3004 32 -1 -16.4395 90.3335 995 -16.4503 90.2531 TC 38 995 -16.4503 90.2872 1 20 -15.9499 90.0004 TC 32 997 18 146
1964056S05100 1964 15 SI WA EVA 1964-02-27 16:00:00 TS -16.6285 90.4294 995 bom main 1911 1911 P_____O__PO_P_ SH191964 -16.6999 90.4670 31 -1 -16.7000 90.5000 995 -16.7002 90.4378 TC 39 994 -16.7000 90.5000 1 20 -16.1999 90.1670 TC 33 997 18 147
1964056S05100 1964 15 SI WA EVA 1964-02-27 18:00:00 TS -17.1361 90.7667 main 1930 1938 O_____P__OP_O_ jtwc_sh SH191964 -17.2000 90.8000 30 -1 -17.2399 90.8334 994 -17.2000 90.8000 TC 40 994 -17.2128 90.8338 1 22 -16.7000 90.5000 TC 35 996 18 148
1964056S05100 1964 15 SI WA EVA 1964-02-27 19:00:00 TS -17.3896 90.9336 994 bom main 1948 1941 P_____O__PP_P_ SH191964 -17.4525 90.9669 30 -1 -17.5000 91.0000 994 -17.4499 90.9669 TC 40 993 -17.4698 91.0007 1 23 -16.9499 90.6669 TC 35 995 18 148
1964056S05100 1964 15 SI WA EVA 1964-02-27 21:00:00 TS -17.8883 91.2671 main 1954 1952 P_____P__PP_P_ SH191964 -17.9574 91.3004 30 -1 -17.9642 91.3335 992 -17.9498 91.3005 TC 42 992 -17.9825 91.3342 1 26 -17.4499 91.0004 TC 37 995 18 147
1964056S05100 1964 15 SI WA EVA 1964-02-27 22:00:00 TS -18.1371 91.4337 992 bom main 1959 1957 P_____O__PP_P_ SH191964 -18.2078 91.4670 30 -1 -18.2000 91.5000 992 -18.1999 91.4671 TC 43 991 -18.2369 91.5009 1 27 -17.6999 91.1670 TC 38 995 18 148
1964056S05100 1964 15 SI WA EVA 1964-02-28 00:00:00 TS -18.6392 91.7668 main 1962 1969 O_____P__OP_O_ jtwc_sh SH191964 -18.7000 91.8000 30 -1 -18.7358 91.8334 990 -18.7000 91.8000 TC 45 990 -18.7390 91.8342 1 30 -18.2000 91.5000 TC 40 995 18 148
1964056S05100 1964 15 SI WA EVA 1964-02-28 01:00:00 TS -18.8886 91.9336 990 bom main 1976 1968 P_____O__PP_P_ SH191964 -18.9416 91.9669 -1 -19.0000 92.0000 990 4 -18.9550 91.9669 TC 44 990 -18.9855 92.0008 1 31 -18.4552 91.6668 TC 40 994 18 147
1964056S05100 1964 15 SI WA EVA 1964-02-28 03:00:00 TS -19.3732 92.2670 main 1983 1983 P_____P__PP_P_ SH191964 -19.4149 92.3004 -1 -19.4721 92.3335 990 -19.4645 92.3003 TC 42 991 -19.4666 92.3337 1 33 -18.9649 92.0003 TC 42 993 17 147
1964056S05100 1964 15 SI WA EVA 1964-02-28 04:00:00 TS -19.6101 92.4336 991 bom main 1991 1984 P_____O__PO_P_ SH191964 -19.6465 92.4670 -1 -19.7000 92.5000 991 -19.7153 92.4670 TC 41 991 -19.7000 92.5000 2 35 -19.2157 92.1669 TC 43 993 17 146
1964056S05100 1964 15 SI WA EVA 1964-02-28 06:00:00 TS -20.0742 92.7683 main 2001 2001 O_____P__OP_O_ jtwc_sh SH191964 -20.1000 92.8000 -1 -20.1745 92.8334 992 -20.2000 92.8000 TC 40 993 -20.1450 92.8447 2 35 -19.7000 92.5000 TC 45 992 17 146
1964056S05100 1964 15 SI WA EVA 1964-02-28 07:00:00 TS -20.2990 92.9360 993 bom main 2010 2003 P_____O__PP_P_ SH191964 -20.3249 92.9669 -1 -20.4000 93.0000 993 -20.4266 92.9671 TC 39 993 -20.3607 93.0174 2 35 -19.9306 92.6669 TC 45 991 16 144
1964056S05100 1964 15 SI WA EVA 1964-02-28 09:00:00 TS -20.7300 93.2711 main 2016 2017 P_____P__PP_P_ SH191964 -20.7648 93.3004 -1 -20.8061 93.3335 993 -20.8559 93.3012 TC 38 994 -20.7813 93.3612 2 35 -20.3723 93.0005 TC 45 991 16 144
1964056S05100 1964 15 SI WA EVA 1964-02-28 10:00:00 TS -20.9390 93.4383 994 bom main 2026 2026 P_____O__PP_P_ SH191964 -20.9799 93.4670 -1 -21.0000 93.5000 994 -21.0607 93.4682 TC 38 994 -20.9873 93.5314 2 35 -20.5853 93.1671 TC 45 991 16 143
1964056S05100 1964 15 SI WA EVA 1964-02-28 12:00:00 TS -21.3499 93.7716 main 2034 1967 O_____P__PP_O_ jtwc_sh SH191964 -21.4000 93.8000 -1 -21.3999 93.8336 995 -21.4558 93.8017 TC 37 995 -21.3937 93.8662 2 35 -21.0000 93.5000 TC 45 991 15 142
1964056S05100 1964 15 SI WA EVA 1964-02-28 15:00:00 TS -21.9508 94.2765 main 1967 1955 P_____P__PP_P_ SH191964 -22.0075 94.3153 -1 -21.9999 94.3335 996 -22.0278 94.3012 TC 36 996 -21.9978 94.3472 2 35 -21.6074 94.0079 TC 42 992 15 142
1964056S05100 1964 15 SI WA EVA 1964-02-28 16:00:00 TS -22.1484 94.4415 997 bom main 1955 1906 P_____O__PO_P_ SH191964 -22.2054 94.4827 -1 -22.2000 94.5000 997 -22.2171 94.4676 TC 35 997 -22.2000 94.5000 2 35 -21.8054 94.1749 TC 41 992 15 143
1964056S05100 1964 15 SI WA EVA 1964-02-28 18:00:00 TS -22.5433 94.7642 main 1906 1892 O_____P__OP_O_ jtwc_sh SH191964 -22.6000 94.8000 -1 -22.6000 94.8335 997 -22.6000 94.8000 TC 35 998 -22.6034 94.8162 2 34 -22.2000 94.5000 TC 40 994 15 143
1964056S05100 1964 15 SI WA EVA 1964-02-28 19:00:00 TS -22.7399 94.9228 998 bom main 1892 1855 P_____O__PP_P_ SH191964 -22.7946 94.9477 -1 -22.8000 95.0000 998 -22.7938 94.9854 TC 34 998 -22.8046 94.9699 2 33 -22.3973 94.6612 TC 39 994 15 144
1964056S05100 1964 15 SI WA EVA 1964-02-28 21:00:00 TS -23.1342 95.2271 main 1855 1842 P_____P__PP_P_ SH191964 -23.1848 95.2231 -1 -23.2000 95.3334 998 -23.1839 95.3488 TC 32 999 -23.2085 95.2651 2 32 -22.7924 94.9728 TC 37 995 15 145
1964056S05100 1964 15 SI WA EVA 1964-02-28 22:00:00 TS -23.3343 95.3716 999 bom main 1832 1802 P_____O__PP_P_ SH191964 -23.3841 95.3526 -1 -23.4000 95.5000 999 -23.3834 95.5168 TC 31 999 -23.4125 95.4053 2 32 -22.9920 95.1215 TC 36 995 15 148
1964056S05100 1964 15 SI WA EVA 1964-02-29 00:00:00 TS -23.7456 95.6475 main 1802 1778 O_____P__OP_O_ jtwc_sh SH191964 -23.8000 95.6000 -1 -23.7922 95.8649 999 -23.8000 95.8000 TC 30 1000 -23.8272 95.6676 2 31 -23.4000 95.4000 TC 35 997 15 149
1964056S05100 1964 15 SI WA EVA 1964-02-29 01:00:00 TS -23.9603 95.7764 1000 bom main 1775 1747 P_____O__PP_P_ SH191964 -24.0193 95.7354 -1 -24.0000 96.0000 1000 -24.0196 95.9044 TC 30 1000 -24.0391 95.7882 2 31 -23.6057 95.5361 TC 34 15 155
1964056S05100 1964 15 SI WA EVA 1964-02-29 03:00:00 TS -24.4096 95.9875 main 1747 1733 P_____P__PP_P_ SH191964 -24.4776 95.9948 -1 -24.4533 96.0808 1000 -24.4785 96.0546 TC 30 1000 -24.4750 96.0051 2 30 -24.0274 95.7877 TC 32 15 158
1964056S05100 1964 15 SI WA EVA 1964-02-29 04:00:00 TS -24.6436 96.0778 1000 bom main 1733 1715 P_____O__PO_P_ SH191964 -24.7146 96.1114 -1 -24.7000 96.1000 1000 -24.7157 96.1092 TC 30 1000 -24.7000 96.1000 1 30 -24.2454 95.9014 TC 31 15 163
1964056S05100 1964 15 SI WA EVA 1964-02-29 06:00:00 TS -25.1295 96.2385 main 1715 1702 O_____P__OP_O_ jtwc_sh SH191964 -25.2000 96.3000 -1 -25.2358 96.2357 1000 -25.2000 96.2000 TC 30 1000 -25.1707 96.2337 1 31 -24.7000 96.1000 TC 30 15 165
1964056S05100 1964 15 SI WA EVA 1964-02-29 07:00:00 TS -25.3750 96.2987 1000 bom main 1701 1685 P_____O__PP_P_ SH191964 -25.4442 96.3572 -1 -25.5000 96.3000 1000 -25.4406 96.2445 TC 30 1000 -25.4130 96.2853 1 32 -24.9385 96.1892 TC 30 15 170
1964056S05100 1964 15 SI WA EVA 1964-02-29 09:00:00 TS -25.8672 96.3805 main 1685 1683 P_____P__PP_P_ SH191964 -25.9423 96.4236 -1 -25.9702 96.3704 1000 -25.9296 96.3152 TC 30 1000 -25.9088 96.3692 1 34 -25.4349 96.3378 TC 32 15 172
1964056S05100 1964 15 SI WA EVA 1964-02-29 10:00:00 TS -26.1158 96.4126 1000 bom main 1683 1670 P_____O__PP_P_ SH191964 -26.1944 96.4456 -1 -26.2000 96.4000 1000 -26.1774 96.3461 TC 30 1000 -26.1611 96.4060 1 35 -25.6891 96.3990 TC 33 15 173
1964056S05100 1964 15 SI WA EVA 1964-02-29 12:00:00 TS -26.6190 96.4839 main 1670 1658 O_____P__PP_O_ jtwc_sh SH191964 -26.7000 96.5000 -1 -26.6834 96.4962 1000 -26.6781 96.4106 TC 30 1000 -26.6716 96.4807 1 36 -26.2000 96.5000 TC 35 15 171
1964056S05100 1964 15 SI WA EVA 1964-02-29 15:00:00 TS -27.3732 96.6301 main 1658 1648 P_____P__PP_P_ SH191964 -27.4499 96.6630 -1 -27.4396 96.6546 1000 -27.4376 96.5502 TC 30 1000 -27.4435 96.6306 1 39 -26.9423 96.5861 TC 37 15 170
1964056S05100 1964 15 SI WA EVA 1964-02-29 16:00:00 TS -27.6262 96.6899 1000 bom main 1648 1640 P_____O__PO_P_ SH191964 -27.6999 96.7326 -1 -27.7000 96.7000 1000 -27.6918 96.6180 TC 30 1000 -27.7000 96.7000 2 40 -27.1920 96.6136 TC 38 16 167
1964056S05100 1964 15 SI WA EVA 1964-02-29 18:00:00 TS -28.1358 96.8275 main 1641 1632 O_____P__OP_O_ jtwc_sh SH191964 -28.2000 96.9000 -1 -28.2399 96.7685 1000 -28.2000 96.8000 TC 30 1000 -28.2104 96.8242 2 38 -27.7000 96.7000 TC 40 16 166
1964056S05100 1964 15 SI WA EVA 1964-02-29 19:00:00 TS -28.3912 96.9036 1000 bom main 1633 1618 P_____O__PP_P_ SH191964 -28.4499 96.9868 -1 -28.5000 96.8000 1000 -28.4564 96.9023 TC 30 1000 -28.4662 96.8957 2 37 -27.9661 96.7667 TC 39 16 163
1964056S05100 1964 15 SI WA EVA 1964-02-29 21:00:00 TS -28.8955 97.0852 main 1619 1612 P_____P__PP_P_ SH191964 -28.9497 97.1909 -1 -28.9642 96.8667 1000 -28.9711 97.1461 TC 30 1000 -28.9765 97.0707 2 35 -28.5073 96.9403 TC 37 16 161
1964056S05100 1964 15 SI WA EVA 1964-02-29 22:00:00 TS -29.1478 97.1931 1000 bom main 1612 1599 P_____O__PP_P_ SH191964 -29.1997 97.3117 -1 -29.2000 96.9000 1000 -29.2282 97.2897 TC 30 1000 -29.2302 97.1795 2 35 -28.7769 97.0470 TC 36 16 158
1964056S05100 1964 15 SI WA EVA 1964-03-01 00:00:00 TS -29.6581 97.4359 main 1603 1588 O_____P__PP_O_ jtwc_sh SH191964 -29.7000 97.6000 -1 -29.7353 96.8728 1000 -29.7391 97.6254 TC 30 1000 -29.7321 97.4529 2 33 -29.3000 97.3000 TC 35 17 156
1964056S05100 1964 15 SI WA EVA 1964-03-01 01:00:00 TS -29.9117 97.5822 1000 bom main 1588 1562 P_____O__PP_P_ SH191964 -29.9573 97.7406 -1 -30.0000 97.0000 1000 -29.9916 97.8198 TC 30 1000 -29.9794 97.6230 2 32 -29.5389 97.4109 TC 34 18 147
1964056S05100 1964 15 SI WA EVA 1964-03-01 03:00:00 TS -30.4051 98.0025 main 1562 1549 P_____P__PP_P_ SH191964 -30.4710 98.0741 -1 -30.4727 97.8090 1000 -30.4878 98.2669 TC 30 1000 -30.4639 98.0437 2 30 -29.9985 97.6754 TC 32 19 142
1964056S05100 1964 15 SI WA EVA 1964-03-01 04:00:00 TS -30.6462 98.2579 1000 bom main 1539 1509 P_____O__PO_P_ SH191964 -30.7222 98.2795 -1 -30.7000 98.3000 1000 -30.7301 98.5218 TC 30 1000 -30.7000 98.3000 1 30 -30.2269 97.8450 TC 31 20 135
1964056S05100 1964 15 SI WA EVA 1964-03-01 06:00:00 TS -31.1183 98.8308 main 1509 1488 O_____P__OP_O_ jtwc_sh SH191964 -31.2000 98.8000 -1 -31.1700 99.1044 1000 -31.2000 99.1000 TC 30 1000 -31.1578 98.9114 1 30 -30.7000 98.3000 TC 30 21 132
1964056S05100 1964 15 SI WA EVA 1964-03-01 07:00:00 TS -31.3397 99.1714 1000 bom main 1479 1423 P_____O__PP_P_ SH191964 -31.4218 99.1256 -1 -31.4000 99.5000 1000 -31.4208 99.4290 TC 30 1000 -31.3797 99.2623 1 30 -30.9738 98.5975 TC 30 23 125
1964056S05100 1964 15 SI WA EVA 1964-03-01 09:00:00 TS -31.7769 99.9446 main 1423 1290 P_____P__PP_P_ SH191964 -31.8338 99.8888 -1 -31.8295 100.334 1000 -31.8447 100.166 TC 30 1000 -31.8102 100.042 1 30 -31.5377 99.3204 TC 30 25 121
1964056S05100 1964 15 SI WA EVA 1964-03-01 12:00:00 TS -32.3984 101.235 main 1290 1151 O_____P__PP_O_ jtwc_sh SH191964 -32.4000 101.200 -1 -32.4275 101.616 1000 -32.4459 101.417 TC 30 1000 -32.4257 101.365 1 30 -32.3000 100.600 TC 30 26 118
1964056S05100 1964 15 SI WA EVA 1964-03-01 15:00:00 TS -32.9704 102.618 main 1151 1113 ______P__PP_P_ SH191964 -1 -33.0050 102.888 1000 -33.0232 102.759 TC 30 1000 -33.0105 102.806 1 30 -32.8273 101.943 TC 30 26 116
1964056S05100 1964 15 SI WA EVA 1964-03-01 16:00:00 TS -33.1619 103.103 1000 bom main 1102 1014 ______O__PO_P_ SH191964 -1 -33.2000 103.300 1000 -33.2142 103.211 TC 30 1000 -33.2000 103.300 1 30 -32.9618 102.394 TC 30 26 117
1964056S05100 1964 15 SI WA EVA 1964-03-01 18:00:00 TS -33.5553 104.008 main 1014 975 ______P__O__O_ -1 -33.5995 104.094 1000 -33.6000 104.100 TC 30 1000 1 -33.2000 103.300 TC 30 27 118
1964056S05100 1964 15 SI WA EVA 1964-03-01 19:00:00 TS -33.7983 104.516 1000 bom main 966 881 ______O__P____ -1 -33.8000 104.500 1000 -33.7965 104.531 TC 30 1000 1 TC 26 120
1964056S05100 1964 15 SI WA EVA 1964-03-01 21:00:00 TS -34.1982 105.369 main 881 853 ______P__P____ -1 -34.1999 105.369 1000 -34.1959 105.370 TC 30 1000 1 TC 24 120
1964056S05100 1964 15 SI WA EVA 1964-03-01 22:00:00 TS -34.3989 105.793 1000 bom main 844 772 ______O__P____ -1 -34.4000 105.800 1000 -34.3973 105.781 TC 30 1000 1 TC 24 121
1964056S05100 1964 15 SI WA EVA 1964-03-02 00:00:00 TS -34.8003 106.606 main 772 745 ______P__O____ -1 -34.8005 106.609 1000 -34.8000 106.600 TC 30 1000 1 23 121
1964056S05100 1964 15 SI WA EVA 1964-03-02 01:00:00 NR -35.0000 107.000 1000 bom main 737 ______O_______ -1 -35.0000 107.000 1000 TC 1 23 122

IBTrACS Databaseについて

本データベースは、米国NOAAが公開する1842年以降の世界の熱帯低気圧のベストトラックデータアーカイブInternational Best Track Archive for Climate Stewardship (IBTrACS)を、ウェブで閲覧しやすい形式に変換したものです。

最終更新日:2021-10-08